Unbenanntes Dokument
Flugplatz Bielefeld Platzwetter

 

Aktuelles Platzwetter am Flugplatz Bielefeld EDLI

26.05.19 ,11:20 Uhr

METAR EDLI 261120Z 23009KT 9999 ///047 18/07 Q1013

 

Windwerte

 

Wolkenuntergrenzen

Wind aktuell:210 ° mit 10 kt
Wind 10 min Extrem:
190 ° bis 270 ° mit 5 kt bis 16 kt
Seitenwindkomponente: 8.2 kt
Wolkengrenze 1: 4700 ft
Wolkengrenze 2:
Wolkengrenze 3:

Webcam

Temperatur

       

Sichtweite:

20.000 Meter

18.4 °C
Taupunkt: 7.6 °C
Luftfeuchtigkeit: 49 %

Luftdruck:

QNH: 1013 hPa (29.91 in Hg)
QFE: 997 hPa (29.44 in Hg)

Diese Daten werden automatisch ermittelt bzw. übertragen und sind nicht geprüft. Für die Richtigkeit wird daher keine Gewähr übernommen. Sie ersetzen im übrigen nicht die Flugwetterberatung. Alle Zeitangaben beziehen sich auf UTC. Die Seite wird einmal die Minute aktualisiert! Sollten Sie ein ältere Seite haben, so drücken Sie bitte auf den Reload Button Ihres Browsers!